Home > Products > Valid Products > TAF

000
FTUS41 KBUF 281100
TAFROC
TAF
KROC 281120Z 2812/2912 01011KT P6SM -SHSN SCT025 OVC040
     FM281600 34013KT P6SM BKN050
     FM282000 32013KT P6SM SCT050
     FM290000 31007KT P6SM SCT050
     FM290500 28006KT P6SM SKC
     FM291100 24006KT P6SM SKC=



000
FTUS41 KBUF 281100
TAFIAG
TAF
KIAG 281120Z 2812/2912 01011KT P6SM -SHSN SCT025 OVC035
     FM281600 34012KT P6SM BKN050
     FM281900 33012KT P6SM SCT050
     FM290000 32006KT P6SM SKC
     FM290700 23004KT P6SM SKC=



000
FTUS41 KBUF 281100
TAFBUF
TAF
KBUF 281120Z 2812/2912 01009KT P6SM -SHSN SCT025 OVC040
     FM281600 34012KT P6SM BKN050
     FM282000 32012KT P6SM SCT050
     FM290000 30006KT P6SM SKC
     FM290600 23004KT P6SM SKC=



000
FTUS41 KBUF 281100
TAFJHW
TAF
KJHW 281120Z 2812/2912 33008KT 3SM -SN OVC015
     FM281500 33011KT P6SM -SHSN OVC030
     FM281700 32012KT P6SM OVC035
     FM282200 31008KT P6SM SCT040
     FM290200 30005KT P6SM SKC
      AMD LTD TO CLD VIS AND WIND=



000
FTUS41 KBUF 281100
TAFART
TAF
KART 281120Z 2812/2912 01009KT P6SM BKN080
     FM281400 36008KT P6SM SCT070
     FM281700 34011KT P6SM BKN060
     FM282100 34011KT P6SM SCT060
     FM290000 VRB03KT P6SM SKC=



000
FTUS41 KBUF 281100
TAFBUF
TAF
KBUF 281120Z 2812/2912 01009KT P6SM -SHSN SCT025 OVC040
     FM281600 34012KT P6SM BKN050
     FM282000 32012KT P6SM SCT050
     FM290000 30006KT P6SM SKC
     FM290600 23004KT P6SM SKC=



000
FTUS41 KBUF 281100
TAFROC
TAF
KROC 281120Z 2812/2912 01011KT P6SM -SHSN SCT025 OVC040
     FM281600 34013KT P6SM BKN050
     FM282000 32013KT P6SM SCT050
     FM290000 31007KT P6SM SCT050
     FM290500 28006KT P6SM SKC
     FM291100 24006KT P6SM SKC=



000
FTUS41 KBUF 281100
TAFIAG
TAF
KIAG 281120Z 2812/2912 01011KT P6SM -SHSN SCT025 OVC035
     FM281600 34012KT P6SM BKN050
     FM281900 33012KT P6SM SCT050
     FM290000 32006KT P6SM SKC
     FM290700 23004KT P6SM SKC=



000
FTUS41 KBUF 281100
TAFJHW
TAF
KJHW 281120Z 2812/2912 33008KT 3SM -SN OVC015
     FM281500 33011KT P6SM -SHSN OVC030
     FM281700 32012KT P6SM OVC035
     FM282200 31008KT P6SM SCT040
     FM290200 30005KT P6SM SKC
      AMD LTD TO CLD VIS AND WIND=



000
FTUS41 KBUF 281100
TAFART
TAF
KART 281120Z 2812/2912 01009KT P6SM BKN080
     FM281400 36008KT P6SM SCT070
     FM281700 34011KT P6SM BKN060
     FM282100 34011KT P6SM SCT060
     FM290000 VRB03KT P6SM SKC=



000
FTUS41 KBUF 280900 AAA
TAFBUF
TAF AMD
KBUF 280904Z 2809/2906 33008KT 4SM -SHSN OVC015
     FM281100 36010KT 2SM -SN OVC020
     FM281400 35012KT P6SM VCSH BKN035
     FM281900 33013KT P6SM SCT050
     FM290000 29006KT P6SM SKC=



000
FTUS41 KBUF 280900 AAA
TAFROC
TAF AMD
KROC 280904Z 2809/2906 02012KT P6SM -SHSN OVC040
     FM281100 36009KT 2SM -SN OVC030
     FM281500 35012KT P6SM VCSH BKN035
     FM282000 33013KT P6SM SCT040
     FM290000 29006KT P6SM SCT040=



000
FTUS41 KBUF 280900 AAA
TAFJHW
TAF AMD
KJHW 280904Z 2809/2906 34009KT 4SM -SN OVC025
     FM281000 34008KT 2SM -SN OVC012
     FM281300 34009KT 4SM -SN OVC015
     FM281600 33011KT P6SM -SHSN OVC025
     FM281900 32012KT P6SM BKN035
     FM282300 30005KT P6SM SCT035
      AMD LTD TO CLD VIS AND WIND=



000
FTUS41 KBUF 280900 AAA
TAFART
TAF AMD
KART 280904Z 2809/2906 01008KT P6SM BKN050
     FM281300 36012KT P6SM SCT050
     FM281800 33012KT P6SM BKN050
     FM282300 32004KT P6SM SCT050=



000
FTUS41 KBUF 280900 AAB
TAFIAG
TAF AMD
KIAG 280904Z 2809/2906 35012KT P6SM -SHSN OVC035
     FM281100 36010KT 3SM -SHSN OVC030
     FM281400 35012KT P6SM VCSH BKN040
     FM281800 33013KT P6SM SCT050
     FM290000 30006KT P6SM SKC=



000
FTUS41 KBUF 280700 AAA
TAFIAG
TAF AMD
KIAG 280757Z 2808/2906 33010KT P6SM -SHSN OVC035
     FM281000 36010KT 3SM -SHSN OVC030
     FM281400 35012KT P6SM VCSH BKN040
     FM281800 33013KT P6SM SCT050
     FM290000 30006KT P6SM SKC=



000
FTUS41 KBUF 280700 AAA
TAFIAG
TAF AMD
KIAG 280757Z 2808/2906 33010KT P6SM -SHSN OVC035
     FM281000 36010KT 3SM -SHSN OVC030
     FM281400 35012KT P6SM VCSH BKN040
     FM281800 33013KT P6SM SCT050
     FM290000 30006KT P6SM SKC=



000
FTUS41 KBUF 280600 CCA
TAFJHW
TAF COR
KJHW 280604Z 2806/2906 34009KT 4SM -SN OVC025
     FM281000 34008KT 2SM -SN OVC012
     FM281300 34009KT 4SM -SN OVC015
     FM281600 33011KT P6SM -SHSN OVC025
     FM281900 32012KT P6SM BKN035
     FM282300 30005KT P6SM SCT035
      AMD LTD TO CLD VIS AND WIND=



000
FTUS41 KBUF 280600 CCA
TAFJHW
TAF COR
KJHW 280604Z 2806/2906 34009KT 4SM -SN OVC025
     FM281000 34008KT 2SM -SN OVC012
     FM281300 34009KT 4SM -SN OVC015
     FM281600 33011KT P6SM -SHSN OVC025
     FM281900 32012KT P6SM BKN035
     FM282300 30005KT P6SM SCT035
      AMD LTD TO CLD VIS AND WIND=



000
FTUS41 KBUF 280600 CCA
TAFROC
TAF COR
KROC 280603Z 2806/2906 04005KT 4SM -SN OVC025
     FM280900 02009KT 2SM -SN OVC015
     FM281300 36009KT 4SM -SHSN BKN030
     FM281600 35012KT P6SM VCSH BKN035
     FM282000 33013KT P6SM SCT040
     FM290000 29006KT P6SM SCT040=



000
FTUS41 KBUF 280600 CCA
TAFROC
TAF COR
KROC 280603Z 2806/2906 04005KT 4SM -SN OVC025
     FM280900 02009KT 2SM -SN OVC015
     FM281300 36009KT 4SM -SHSN BKN030
     FM281600 35012KT P6SM VCSH BKN035
     FM282000 33013KT P6SM SCT040
     FM290000 29006KT P6SM SCT040=



000
FTUS41 KBUF 280500
TAFJHW
TAF
KJHW 280522Z 2806/2906 33008KT 4SM -SN OVC012
      TEMPO 2806/2810 2SM -SN
     FM281000 34008KT 2SM -SN OVC012
     FM281300 34009KT 4SM -SN OVC015
     FM281600 33011KT P6SM -SHSN OVC025
     FM281900 32012KT P6SM BKN035
     FM282300 30005KT P6SM SCT035
      AMD LTD TO CLD VIS AND WIND=



000
FTUS41 KBUF 280500
TAFROC
TAF
KROC 280522Z 2806/2906 04005KT 2SM -SN OVC015
     FM281000 02009KT 2SM -SN OVC015
     FM281300 36009KT 4SM -SHSN BKN030
     FM281600 35012KT P6SM VCSH BKN035
     FM282000 33013KT P6SM SCT040
     FM290000 29006KT P6SM SCT040=



000
FTUS41 KBUF 280500
TAFART
TAF
KART 280522Z 2806/2906 01008KT P6SM VCSH BKN050
     FM281300 36012KT P6SM SCT050
     FM281800 33012KT P6SM BKN050
     FM282300 32004KT P6SM SCT050=



000
FTUS41 KBUF 280500
TAFIAG
TAF
KIAG 280522Z 2806/2906 33009KT 2SM -SN OVC030
      TEMPO 2806/2809 3/4SM -SN OVC015
     FM281000 36010KT 4SM -SHSN OVC030
     FM281400 35012KT P6SM VCSH BKN040
     FM281800 33013KT P6SM SCT050
     FM290000 30006KT P6SM SKC=



000
FTUS41 KBUF 280500
TAFART
TAF
KART 280522Z 2806/2906 01008KT P6SM VCSH BKN050
     FM281300 36012KT P6SM SCT050
     FM281800 33012KT P6SM BKN050
     FM282300 32004KT P6SM SCT050=



000
FTUS41 KBUF 280500
TAFIAG
TAF
KIAG 280522Z 2806/2906 33009KT 2SM -SN OVC030
      TEMPO 2806/2809 3/4SM -SN OVC015
     FM281000 36010KT 4SM -SHSN OVC030
     FM281400 35012KT P6SM VCSH BKN040
     FM281800 33013KT P6SM SCT050
     FM290000 30006KT P6SM SKC=



000
FTUS41 KBUF 280500
TAFROC
TAF
KROC 280522Z 2806/2906 04005KT 2SM -SN OVC015
     FM281000 02009KT 2SM -SN OVC015
     FM281300 36009KT 4SM -SHSN BKN030
     FM281600 35012KT P6SM VCSH BKN035
     FM282000 33013KT P6SM SCT040
     FM290000 29006KT P6SM SCT040=



000
FTUS41 KBUF 280500
TAFBUF
TAF
KBUF 280522Z 2806/2906 31007KT P6SM -SN SCT025 OVC060
     FM280700 33008KT 2SM -SN OVC025
      TEMPO 2807/2810 3/4SM -SN OVC015
     FM281100 36010KT 4SM -SHSN OVC025
     FM281400 35012KT P6SM VCSH BKN035
     FM281900 33013KT P6SM SCT050
     FM290000 29006KT P6SM SKC=



000
FTUS41 KBUF 280500
TAFBUF
TAF
KBUF 280522Z 2806/2906 31007KT P6SM -SN SCT025 OVC060
     FM280700 33008KT 2SM -SN OVC025
      TEMPO 2807/2810 3/4SM -SN OVC015
     FM281100 36010KT 4SM -SHSN OVC025
     FM281400 35012KT P6SM VCSH BKN035
     FM281900 33013KT P6SM SCT050
     FM290000 29006KT P6SM SKC=



000
FTUS41 KBUF 280500
TAFJHW
TAF
KJHW 280522Z 2806/2906 33008KT 4SM -SN OVC012
      TEMPO 2806/2810 2SM -SN
     FM281000 34008KT 2SM -SN OVC012
     FM281300 34009KT 4SM -SN OVC015
     FM281600 33011KT P6SM -SHSN OVC025
     FM281900 32012KT P6SM BKN035
     FM282300 30005KT P6SM SCT035
      AMD LTD TO CLD VIS AND WIND=



000
FTUS41 KBUF 280400 AAB
TAFROC
TAF AMD
KROC 280405Z 2804/2824 04009KT 3/4SM -SN OVC007
     FM280800 36006KT 3SM -SN OVC012
     FM281200 36009KT 5SM -SHSN OVC020
      TEMPO 2812/2816 2SM -SN BKN012
     FM281700 34010KT P6SM OVC020
     FM282300 29010KT P6SM SCT025=



000
FTUS41 KBUF 280300 AAA
TAFART
TAF AMD
KART 280309Z 2803/2824 35004KT P6SM OVC050
     FM281700 36010KT P6SM SCT020
     FM282000 34009KT P6SM BKN030
     FM282200 34006KT P6SM SCT030=



000
FTUS41 KBUF 280300 AAA
TAFROC
TAF AMD
KROC 280309Z 2803/2824 04009KT 2SM -SN OVC007
     FM280800 36006KT 3SM -SN OVC012
     FM281200 36009KT 5SM -SHSN OVC020
      TEMPO 2812/2816 2SM -SN BKN012
     FM281700 34010KT P6SM OVC020
     FM282300 29010KT P6SM SCT025=



000
FTUS41 KBUF 280300 AAA
TAFJHW
TAF AMD
KJHW 280309Z 2803/2824 31012KT 6SM -SHSN OVC025
     FM281200 33010KT 3SM -SHSN VCSH OVC012
     FM281600 33010KT 5SM BR VCSH OVC012
     FM281700 32010KT P6SM OVC020
     FM282300 30008KT P6SM SCT025
      AMD LTD TO CLD VIS AND WIND=



000
FTUS41 KBUF 280300 AAA
TAFBUF
TAF AMD
KBUF 280309Z 2803/2824 32006KT 4SM -SHSN OVC015
     FM280600 36007KT 2SM -SN OVC009
     FM281100 34009KT 5SM -SHSN OVC025
     FM281700 32009KT P6SM OVC025
     FM282100 31009KT P6SM BKN200=



000
FTUS41 KBUF 280300 AAA
TAFIAG
TAF AMD
KIAG 280309Z 2803/2824 32008KT 4SM -SHSN OVC015
     FM280500 33007KT 2SM -SN OVC009
     FM281000 35010KT 5SM -SHSN OVC015
     FM281500 34011KT P6SM OVC025
     FM281900 33010KT P6SM SCT200=



000
FTUS41 KBUF 272300
TAFROC
TAF
KROC 272340Z 2800/2824 31008KT 6SM -SHSN OVC025
     FM280300 04009KT 2SM -SN OVC007
     FM280800 36006KT 3SM -SN OVC012
     FM281200 36009KT 5SM -SHSN OVC020
      TEMPO 2812/2816 2SM -SN BKN012
     FM281700 34010KT P6SM OVC020
     FM282300 29010KT P6SM SCT025=



000
FTUS41 KBUF 272300
TAFJHW
TAF
KJHW 272340Z 2800/2824 31012KT 3SM -SHSN OVC012
      TEMPO 2800/2802 2SM -SN OVC007
     FM281500 33010KT 3SM -SHSN VCSH OVC012
     FM281600 33010KT 5SM BR VCSH OVC012
     FM281700 32010KT P6SM OVC020
     FM282300 30008KT P6SM SCT025
      AMD LTD TO CLD VIS AND WIND=



000
FTUS41 KBUF 272300
TAFART
TAF
KART 272340Z 2800/2824 35007KT 2SM -SHSN OVC020
     FM280400 01006KT P6SM OVC015
     FM281700 36010KT P6SM SCT020
     FM282000 34009KT P6SM BKN030
     FM282200 34006KT P6SM SCT030=



000
FTUS41 KBUF 272300
TAFBUF
TAF
KBUF 272340Z 2800/2824 32007KT 6SM -SHSN OVC025
     FM280200 32006KT 4SM -SHSN OVC015
     FM280700 36007KT 2SM -SN OVC009
     FM281100 34009KT 5SM -SHSN OVC025
     FM281700 32009KT P6SM OVC025
     FM282100 31009KT P6SM BKN200=



000
FTUS41 KBUF 272300
TAFIAG
TAF
KIAG 272340Z 2800/2824 34009KT P6SM OVC050
     FM280100 32008KT 4SM -SHSN OVC015
     FM280600 33007KT 2SM -SN OVC009
     FM281000 35010KT 5SM -SHSN OVC015
     FM281500 34011KT P6SM OVC025
     FM281900 33010KT P6SM SCT200=



000
FTUS41 KBUF 272300
TAFJHW
TAF
KJHW 272340Z 2800/2824 31012KT 3SM -SHSN OVC012
      TEMPO 2800/2802 2SM -SN OVC007
     FM281500 33010KT 3SM -SHSN VCSH OVC012
     FM281600 33010KT 5SM BR VCSH OVC012
     FM281700 32010KT P6SM OVC020
     FM282300 30008KT P6SM SCT025
      AMD LTD TO CLD VIS AND WIND=



000
FTUS41 KBUF 272300
TAFART
TAF
KART 272340Z 2800/2824 35007KT 2SM -SHSN OVC020
     FM280400 01006KT P6SM OVC015
     FM281700 36010KT P6SM SCT020
     FM282000 34009KT P6SM BKN030
     FM282200 34006KT P6SM SCT030=



000
FTUS41 KBUF 272300
TAFIAG
TAF
KIAG 272340Z 2800/2824 34009KT P6SM OVC050
     FM280100 32008KT 4SM -SHSN OVC015
     FM280600 33007KT 2SM -SN OVC009
     FM281000 35010KT 5SM -SHSN OVC015
     FM281500 34011KT P6SM OVC025
     FM281900 33010KT P6SM SCT200=



000
FTUS41 KBUF 272300
TAFROC
TAF
KROC 272340Z 2800/2824 31008KT 6SM -SHSN OVC025
     FM280300 04009KT 2SM -SN OVC007
     FM280800 36006KT 3SM -SN OVC012
     FM281200 36009KT 5SM -SHSN OVC020
      TEMPO 2812/2816 2SM -SN BKN012
     FM281700 34010KT P6SM OVC020
     FM282300 29010KT P6SM SCT025=



000
FTUS41 KBUF 272300
TAFBUF
TAF
KBUF 272340Z 2800/2824 32007KT 6SM -SHSN OVC025
     FM280200 32006KT 4SM -SHSN OVC015
     FM280700 36007KT 2SM -SN OVC009
     FM281100 34009KT 5SM -SHSN OVC025
     FM281700 32009KT P6SM OVC025
     FM282100 31009KT P6SM BKN200=



000
FTUS41 KBUF 272100 AAB
TAFART
TAF AMD
KART 272117Z 2721/2818 01010KT 4SM -SN OVC009
     FM272300 36008KT P6SM BKN015
     FM281200 36010KT P6SM SCT020=



000
FTUS41 KBUF 272100 AAB
TAFBUF
TAF AMD
KBUF 272117Z 2721/2818 32008KT 5SM -SHSN BKN015 OVC020
      TEMPO 2721/2723 2SM -SHSN SCT009 OVC015
     FM280500 36009KT 3SM -SHSN BKN012 OVC020
     FM281400 34009KT P6SM BKN015
     FM281700 32009KT P6SM BKN020=



000
FTUS41 KBUF 272100 AAA
TAFROC
TAF AMD
KROC 272117Z 2721/2818 32009KT 6SM -SHSN OVC025
     FM272200 33006KT 3SM -SHSN OVC012
     FM280200 02009KT 2SM -SHSN BKN007 OVC012
     FM280800 36009KT 3SM -SHSN OVC012
     FM281600 35009KT P6SM -SHSN BKN012=



000
FTUS41 KBUF 272100 AAA
TAFIAG
TAF AMD
KIAG 272117Z 2721/2818 33010G18KT 6SM BR VCSH OVC025
     FM272300 33012KT 4SM -SHSN BKN012 OVC020
     FM280200 33011G17KT 2SM -SHSN BKN012 OVC020
     FM281200 35011KT 6SM -SHSN BKN012
     FM281700 33010KT P6SM FEW020=



000
FTUS41 KBUF 272100 AAA
TAFJHW
TAF AMD
KJHW 272117Z 2721/2818 29009KT 3SM -SHSN OVC012
     FM272300 30009KT 6SM -SHSN BKN007 OVC020
     FM281600 33010KT P6SM -SHSN BKN012
      AMD LTD TO CLD VIS AND WIND=



000
FTUS41 KBUF 271900 AAA
TAFART
TAF AMD
KART 271903Z 2719/2818 01010KT P6SM OVC015
     FM281200 36010KT P6SM SCT020=



000
FTUS41 KBUF 271900 AAA
TAFBUF
TAF AMD
KBUF 271903Z 2719/2818 32008KT 5SM -SHSN BKN015 OVC020
      TEMPO 2719/2723 2SM -SHSN SCT009 OVC015
     FM280500 36009KT 3SM -SHSN BKN012 OVC020
     FM281400 34009KT P6SM BKN015
     FM281700 32009KT P6SM BKN020=



000
FTUS41 KBUF 271700
TAFBUF
TAF
KBUF 271720Z 2718/2818 32008KT 6SM -SHSN BKN015 OVC020
     FM280500 36009KT 3SM -SHSN BKN012 OVC020
     FM281400 34009KT P6SM BKN015
     FM281700 32009KT P6SM BKN020=



000
FTUS41 KBUF 271700
TAFJHW
TAF
KJHW 271720Z 2718/2818 29009KT P6SM VCSH OVC012
     FM272100 29009KT 3SM -SHSN OVC012
     FM272300 30009KT 6SM -SHSN BKN007 OVC020
     FM281600 33010KT P6SM -SHSN BKN012
      AMD LTD TO CLD VIS AND WIND=



000
FTUS41 KBUF 271700
TAFIAG
TAF
KIAG 271720Z 2718/2818 33010G18KT 5SM -SHSN BKN015 OVC025
     FM272200 33012KT 4SM -SHSN BKN012 OVC020
     FM280200 33011G17KT 2SM -SHSN BKN012 OVC020
     FM281200 35011KT 6SM -SHSN BKN012
     FM281700 33010KT P6SM FEW020=



000
FTUS41 KBUF 271700
TAFART
TAF
KART 271720Z 2718/2818 01010KT P6SM BKN012 OVC040
      TEMPO 2718/2720 2SM -SHSN
     FM281200 36010KT P6SM SCT020=



000
FTUS41 KBUF 271700
TAFROC
TAF
KROC 271720Z 2718/2818 30009KT P6SM OVC015
     FM272200 33006KT 3SM -SHSN OVC012
     FM280200 02009KT 2SM -SHSN BKN007 OVC010
     FM280800 36009KT 3SM -SHSN OVC012
     FM281600 35009KT P6SM -SHSN BKN012=



000
FTUS41 KBUF 271600 AAB
TAFBUF
TAF AMD
KBUF 271601Z 2716/2812 32010KT 3/4SM -SN BR BKN008 OVC013
     FM271700 34009KT 6SM -SN SCT012 OVC020
      TEMPO 2717/2718 3SM -SN SCT008 OVC015
     FM280600 34011KT 2SM -SHSN OVC012=



000
FTUS41 KBUF 271400 AAA
TAFROC
TAF AMD
KROC 271446Z 2715/2812 30008KT P6SM -SN BKN014 OVC022
     FM271700 34011KT P6SM -SHSN OVC015
     FM280000 31010KT 2SM -SHSN OVC012
     FM280800 02012KT 5SM -SHSN OVC012=



000
FTUS41 KBUF 271400 AAA
TAFART
TAF AMD
KART 271446Z 2715/2812 25003KT P6SM VCSH BKN010 OVC016
     FM271800 36009KT P6SM OVC012
     FM280000 02006KT P6SM OVC015=



000
FTUS41 KBUF 271400 AAA
TAFART
TAF AMD
KART 271446Z 2715/2812 25003KT P6SM VCSH BKN010 OVC016
     FM271800 36009KT P6SM OVC012
     FM280000 02006KT P6SM OVC015=



000
FTUS41 KBUF 271400 AAA
TAFJHW
TAF AMD
KJHW 271446Z 2715/2812 32010KT P6SM VCSH SCT008 OVC015
      TEMPO 2716/2720 OVC008
     FM272200 33009KT 2SM -SHSN BKN008 OVC012
     FM280400 35009KT 4SM BR VCSH SCT008 OVC012
      AMD LTD TO CLD VIS AND WIND=



000
FTUS41 KBUF 271400 AAA
TAFIAG
TAF AMD
KIAG 271446Z 2715/2812 33008KT P6SM -SN BKN016 OVC025
     FM280500 34012G18KT 2SM -SHSN OVC015=



000
FTUS41 KBUF 271400 AAA
TAFBUF
TAF AMD
KBUF 271446Z 2715/2812 26005KT 6SM -SN SCT012 OVC025
     FM271600 34009KT 6SM -SN SCT012 OVC020
     FM280600 34011KT 2SM -SHSN OVC012=



000
FTUS41 KBUF 271400 AAA
TAFROC
TAF AMD
KROC 271446Z 2715/2812 30008KT P6SM -SN BKN014 OVC022
     FM271700 34011KT P6SM -SHSN OVC015
     FM280000 31010KT 2SM -SHSN OVC012
     FM280800 02012KT 5SM -SHSN OVC012=



000
FTUS41 KBUF 271400 AAA
TAFJHW
TAF AMD
KJHW 271446Z 2715/2812 32010KT P6SM VCSH SCT008 OVC015
      TEMPO 2716/2720 OVC008
     FM272200 33009KT 2SM -SHSN BKN008 OVC012
     FM280400 35009KT 4SM BR VCSH SCT008 OVC012
      AMD LTD TO CLD VIS AND WIND=



000
FTUS41 KBUF 271400 AAA
TAFIAG
TAF AMD
KIAG 271446Z 2715/2812 33008KT P6SM -SN BKN016 OVC025
     FM280500 34012G18KT 2SM -SHSN OVC015=



000
FTUS41 KBUF 271400 AAA
TAFBUF
TAF AMD
KBUF 271446Z 2715/2812 26005KT 6SM -SN SCT012 OVC025
     FM271600 34009KT 6SM -SN SCT012 OVC020
     FM280600 34011KT 2SM -SHSN OVC012=



000
FTUS41 KBUF 271100
TAFJHW
TAF
KJHW 271122Z 2712/2812 28007KT 6SM BR VCSH BKN007 OVC015
     FM271600 32006KT P6SM VCSH OVC007
     FM272100 33009KT 2SM -SHSN OVC012
     FM280400 35009KT 2SM BR VCSH OVC012
      AMD LTD TO CLD VIS AND WIND=



000
FTUS41 KBUF 271100
TAFIAG
TAF
KIAG 271122Z 2712/2812 30011KT P6SM VCSH BKN012 OVC045
     FM271400 31011KT 2SM -SHSN BKN012 OVC030
     FM271500 32011KT 2SM -SN OVC012
     FM271800 34012G18KT 2SM -SHSN OVC020=



000
FTUS41 KBUF 271100
TAFBUF
TAF
KBUF 271122Z 2712/2812 28009KT P6SM VCSH BKN012 OVC035
     FM271400 29009KT 2SM -SHSN BR OVC012
     FM271600 34009KT 2SM -SN OVC012
     FM271800 34011KT 2SM -SHSN OVC012=



000
FTUS41 KBUF 271100
TAFROC
TAF
KROC 271122Z 2712/2812 27007KT P6SM VCSH SCT025 OVC050
     FM271500 30009KT 2SM -SN OVC015
     FM271700 34011KT 2SM -SHSN OVC015=



000
FTUS41 KBUF 271100
TAFART
TAF
KART 271122Z 2712/2812 25007KT 6SM BR VCSH OVC020
     FM271300 29007KT 2SM -SHSN BR OVC015
     FM271500 35008KT 5SM BR VCSH OVC012
     FM271600 34009KT P6SM OVC012=



000
FTUS41 KBUF 271000 AAB
TAFROC
TAF AMD
KROC 271024Z 2710/2806 25006KT P6SM -SHSN FEW025 OVC060
     FM271400 32005KT P6SM VCSH OVC020
     FM271600 02008KT 2SM -SN OVC020
     FM271900 03012KT 2SM -SHSN OVC015=



000
FTUS41 KBUF 271000 AAA
TAFBUF
TAF AMD
KBUF 271024Z 2710/2806 24005KT 5SM BR BKN012 BKN060
     FM271200 25005KT 5SM BR VCSH OVC020
     FM271600 28005KT 2SM -SN OVC025
     FM271900 32006KT 2SM -SHSN OVC015=



000
FTUS41 KBUF 271000 AAA
TAFIAG
TAF AMD
KIAG 271024Z 2710/2806 25005KT P6SM FEW020 BKN060
     FM271400 31007KT P6SM VCSH OVC035
     FM271500 33009KT 2SM -SN OVC025
     FM271800 01011KT 2SM -SHSN OVC015=



000
FTUS41 KBUF 271000 AAA
TAFBUF
TAF AMD
KBUF 271024Z 2710/2806 24005KT 5SM BR BKN012 BKN060
     FM271200 25005KT 5SM BR VCSH OVC020
     FM271600 28005KT 2SM -SN OVC025
     FM271900 32006KT 2SM -SHSN OVC015=



000
FTUS41 KBUF 271000 AAA
TAFJHW
TAF AMD
KJHW 271024Z 2710/2806 27004KT 6SM BR BKN007 OVC050
     FM271500 29006KT 6SM BR VCSH OVC015
     FM272100 33009KT 2SM -SN OVC015
      AMD LTD TO CLD VIS AND WIND=



000
FTUS41 KBUF 271000 AAA
TAFART
TAF AMD
KART 271024Z 2710/2806 23005KT 4SM BR BKN025
     FM271100 31004KT 5SM BR VCSH OVC020
     FM271600 01010KT 5SM BR VCSH OVC020
     FM280300 01010KT P6SM OVC015=



000
FTUS41 KBUF 271000 AAA
TAFJHW
TAF AMD
KJHW 271024Z 2710/2806 27004KT 6SM BR BKN007 OVC050
     FM271500 29006KT 6SM BR VCSH OVC015
     FM272100 33009KT 2SM -SN OVC015
      AMD LTD TO CLD VIS AND WIND=



000
FTUS41 KBUF 271000 AAA
TAFIAG
TAF AMD
KIAG 271024Z 2710/2806 25005KT P6SM FEW020 BKN060
     FM271400 31007KT P6SM VCSH OVC035
     FM271500 33009KT 2SM -SN OVC025
     FM271800 01011KT 2SM -SHSN OVC015=



000
FTUS41 KBUF 271000 AAA
TAFART
TAF AMD
KART 271024Z 2710/2806 23005KT 4SM BR BKN025
     FM271100 31004KT 5SM BR VCSH OVC020
     FM271600 01010KT 5SM BR VCSH OVC020
     FM280300 01010KT P6SM OVC015=



000
FTUS41 KBUF 271000 AAB
TAFROC
TAF AMD
KROC 271024Z 2710/2806 25006KT P6SM -SHSN FEW025 OVC060
     FM271400 32005KT P6SM VCSH OVC020
     FM271600 02008KT 2SM -SN OVC020
     FM271900 03012KT 2SM -SHSN OVC015=



000
FTUS41 KBUF 270600 AAA
TAFROC
TAF AMD
KROC 270651Z 2707/2806 25006KT P6SM FEW025 OVC060
     FM271400 32005KT P6SM VCSH OVC020
     FM271600 02008KT 2SM -SN OVC020
     FM271900 03012KT 2SM -SHSN OVC015=



000
FTUS41 KBUF 270600 AAA
TAFROC
TAF AMD
KROC 270651Z 2707/2806 25006KT P6SM FEW025 OVC060
     FM271400 32005KT P6SM VCSH OVC020
     FM271600 02008KT 2SM -SN OVC020
     FM271900 03012KT 2SM -SHSN OVC015=



000
FTUS41 KBUF 270500
TAFIAG
TAF
KIAG 270523Z 2706/2806 26007KT P6SM FEW007 OVC060
     FM270800 25005KT P6SM FEW020 BKN060
     FM271400 31007KT P6SM VCSH OVC035
     FM271500 33009KT 2SM -SN OVC025
     FM271800 01011KT 2SM -SHSN OVC015=



000
FTUS41 KBUF 270500
TAFART
TAF
KART 270523Z 2706/2806 23005KT 4SM BR OVC004
     FM271100 31004KT 5SM BR VCSH OVC007
     FM271600 01010KT 5SM BR VCSH OVC020
     FM280300 01010KT P6SM OVC015=



000
FTUS41 KBUF 270500
TAFROC
TAF
KROC 270523Z 2706/2806 25006KT P6SM OVC025
     FM271400 32005KT P6SM VCSH OVC020
     FM271600 02008KT 2SM -SN OVC020
     FM271900 03012KT 2SM -SHSN OVC015=



000
FTUS41 KBUF 270500
TAFBUF
TAF
KBUF 270523Z 2706/2806 24005KT 5SM BR FEW007 OVC060
     FM270800 24005KT P6SM FEW020 BKN060
     FM271200 25005KT 5SM BR VCSH OVC020
     FM271600 28005KT 2SM -SN OVC025
     FM271900 32006KT 2SM -SHSN OVC015=



000
FTUS41 KBUF 270500
TAFART
TAF
KART 270523Z 2706/2806 23005KT 4SM BR OVC004
     FM271100 31004KT 5SM BR VCSH OVC007
     FM271600 01010KT 5SM BR VCSH OVC020
     FM280300 01010KT P6SM OVC015=



000
FTUS41 KBUF 270500
TAFBUF
TAF
KBUF 270523Z 2706/2806 24005KT 5SM BR FEW007 OVC060
     FM270800 24005KT P6SM FEW020 BKN060
     FM271200 25005KT 5SM BR VCSH OVC020
     FM271600 28005KT 2SM -SN OVC025
     FM271900 32006KT 2SM -SHSN OVC015=



000
FTUS41 KBUF 270500
TAFROC
TAF
KROC 270523Z 2706/2806 25006KT P6SM OVC025
     FM271400 32005KT P6SM VCSH OVC020
     FM271600 02008KT 2SM -SN OVC020
     FM271900 03012KT 2SM -SHSN OVC015=



000
FTUS41 KBUF 270500
TAFIAG
TAF
KIAG 270523Z 2706/2806 26007KT P6SM FEW007 OVC060
     FM270800 25005KT P6SM FEW020 BKN060
     FM271400 31007KT P6SM VCSH OVC035
     FM271500 33009KT 2SM -SN OVC025
     FM271800 01011KT 2SM -SHSN OVC015=



000
FTUS41 KBUF 270500
TAFJHW
TAF
KJHW 270523Z 2706/2806 27004KT 6SM BR FEW020 OVC050
     FM271500 29006KT 6SM BR VCSH OVC015
     FM272100 33009KT 2SM -SN OVC015
      AMD LTD TO CLD VIS AND WIND=



000
FTUS41 KBUF 270500
TAFJHW
TAF
KJHW 270523Z 2706/2806 27004KT 6SM BR FEW020 OVC050
     FM271500 29006KT 6SM BR VCSH OVC015
     FM272100 33009KT 2SM -SN OVC015
      AMD LTD TO CLD VIS AND WIND=



000
FTUS41 KBUF 270300 AAA
TAFART
TAF AMD
KART 270300Z 2703/2724 21005KT 4SM BR OVC003
     FM270800 23006KT 5SM BR OVC007
     FM271200 33005KT 4SM -SN BR OVC012
     FM271600 01010KT 5SM -SN BR OVC020=



000
FTUS41 KBUF 270300 AAA
TAFROC
TAF AMD
KROC 270300Z 2703/2724 23007KT P6SM BKN010 BKN030 OVC050
     FM270600 26006KT P6SM OVC020
     FM271400 32005KT 5SM -SN BR OVC020
     FM271700 02008KT 3SM -SN OVC020=



000
FTUS41 KBUF 270300 AAA
TAFJHW
TAF AMD
KJHW 270300Z 2703/2724 27006KT 5SM BR OVC005
     FM270800 25005KT 4SM BR OVC012
     FM271100 27004KT 3SM -SN BR OVC012
     FM271600 29007KT 4SM -SN OVC015
     FM272200 33009KT 3SM -SN OVC015
      AMD LTD TO CLD VIS AND WIND=



000
FTUS41 KBUF 270300 AAA
TAFIAG
TAF AMD
KIAG 270300Z 2703/2724 27010KT P6SM OVC040
     FM270600 25007KT P6SM OVC025
     FM271100 27005KT 6SM BR OVC020
     FM271200 27005KT 5SM -SN BR OVC025
     FM271400 31007KT 3SM -SN OVC035
     FM271600 33009KT 2SM -SN OVC025=



000
FTUS41 KBUF 270300 AAA
TAFBUF
TAF AMD
KBUF 270300Z 2703/2724 23006KT 5SM BR BKN003 OVC060
     FM270500 24007KT 5SM BR OVC008
     FM271300 26005KT 4SM -SN OVC025
     FM271700 32006KT 3SM -SN OVC015
     FM272000 36009KT 2SM -SN OVC015=



000
FTUS41 KBUF 262300
TAFJHW
TAF
KJHW 262320Z 2700/2724 23006KT 6SM BR OVC006
     FM270300 27005KT 5SM BR OVC012
     FM270600 25005KT 6SM BR OVC012
     FM270800 27004KT 3SM -SN BR OVC012
     FM271400 29006KT 2SM -SN BR OVC007
     FM271600 29007KT 4SM -SN OVC015
     FM272200 33009KT 3SM -SN OVC015
      AMD LTD TO CLD VIS AND WIND=



000
FTUS41 KBUF 262300
TAFIAG
TAF
KIAG 262320Z 2700/2724 23007KT 6SM BR FEW008 OVC030
     FM270200 24008KT 6SM BR OVC020
     FM270600 25007KT P6SM OVC007
     FM271100 27005KT 6SM BR OVC020
     FM271200 27005KT 5SM -SN BR OVC025
     FM271400 31007KT 3SM -SN OVC035
     FM271600 33009KT 2SM -SN OVC025=



000
FTUS41 KBUF 262300
TAFROC
TAF
KROC 262320Z 2700/2724 26004KT P6SM -SNRA BKN010 OVC018
     FM270200 25005KT 6SM BR OVC007
     FM270500 26006KT P6SM OVC020
     FM271400 32005KT 5SM -SN BR OVC020
     FM271700 02008KT 2SM -SN OVC020=



000
FTUS41 KBUF 262300
TAFART
TAF
KART 262320Z 2700/2724 23005KT 1 1/2SM -SN BR OVC002
     FM270100 24005KT 2SM -SNRA OVC007
     FM270400 23006KT 5SM BR OVC007
     FM271000 33005KT 4SM -SN BR OVC012
     FM271600 01010KT 5SM -SN BR OVC020=



000
FTUS41 KBUF 262300
TAFBUF
TAF
KBUF 262320Z 2700/2724 24010KT 2SM BR OVC002
     FM270300 24009KT 4SM BR OVC007
     FM270500 24007KT 6SM BR OVC012
     FM271300 26005KT 3SM -SN OVC025
     FM271700 32006KT 2SM -SN OVC015
     FM272000 36009KT 2SM -SN OVC015=



000
FTUS41 KBUF 262100 AAC
TAFART
TAF AMD
KART 262100Z 2621/2718 25003KT 1SM -SN BR OVC002
     FM270100 23004KT 2SM -SN OVC025
     FM270300 23005KT 3SM -SN OVC025
     FM271100 31004KT 4SM -SN OVC020
     FM271400 36008KT 4SM -SN BKN020=



000
FTUS41 KBUF 262100 AAA
TAFJHW
TAF AMD
KJHW 262100Z 2621/2718 00000KT 4SM -SN OVC003
     FM270000 29005KT 3SM -SN OVC007
     FM270600 25005KT 5SM -SN BKN007
     FM271000 28004KT 3SM -SN BKN007
     FM271400 29006KT 2SM -SN BKN007
     FM271600 29007KT 2SM -SN BKN015
      AMD LTD TO CLD VIS AND WIND=



000
FTUS41 KBUF 262100 AAA
TAFBUF
TAF AMD
KBUF 262100Z 2621/2718 23006KT 3SM -RA BR OVC004
     FM270000 23007KT 5SM -SN OVC025
     FM270400 24007KT P6SM -SN BKN035
     FM271100 25004KT 4SM -SN BKN035
     FM271300 26005KT 3SM -SN OVC025
     FM271700 32006KT 2SM -SN OVC015=



000
FTUS41 KBUF 262100 AAA
TAFROC
TAF AMD
KROC 262100Z 2621/2718 26003KT 4SM -RASN BR OVC004
     FM270100 25004KT 2SM -SN OVC025
     FM270200 25005KT 6SM -SN BKN025
     FM270700 26006KT P6SM BKN200
     FM271400 32005KT 5SM -SN BKN020
     FM271600 35007KT 3SM -SN BKN020
     FM271700 02008KT 2SM -SN BKN020=



000
FTUS41 KBUF 262100 AAA
TAFIAG
TAF AMD
KIAG 262100Z 2621/2718 23006KT 5SM BR OVC007
     FM262200 24005KT 3SM -SN OVC025
     FM270000 23007KT P6SM OVC025
     FM270200 24007KT P6SM BKN035
     FM271100 27005KT 6SM -SN BKN035
     FM271400 31007KT 3SM -SN BKN035
     FM271600 33009KT 2SM -SN BKN025=



000
FTUS41 KBUF 261900 AAB
TAFART
TAF AMD
KART 261938Z 2620/2718 00000KT 1/2SM SN FG OVC003
     FM262100 23004KT 1SM -SN BR OVC006
     FM270100 23004KT 2SM -SN OVC025
     FM270300 23005KT 3SM -SN OVC025
     FM271100 31004KT 4SM -SN OVC020
     FM271400 36008KT 4SM -SN BKN020=



000
FTUS41 KBUF 261800 AAA
TAFART
TAF AMD
KART 261824Z 2618/2718 00000KT 1/2SM SN FG SCT004 OVC012
      TEMPO 2618/2620 1/4SM SN FG OVC006
     FM270100 23004KT 2SM -SN OVC025
     FM270300 23005KT 3SM -SN OVC025
     FM271100 31004KT 4SM -SN OVC020
     FM271400 36008KT 4SM -SN BKN020=



000
FTUS41 KBUF 261800 AAA
TAFART
TAF AMD
KART 261824Z 2618/2718 00000KT 1/2SM SN FG SCT004 OVC012
      TEMPO 2618/2620 1/4SM SN FG OVC006
     FM270100 23004KT 2SM -SN OVC025
     FM270300 23005KT 3SM -SN OVC025
     FM271100 31004KT 4SM -SN OVC020
     FM271400 36008KT 4SM -SN BKN020=



000
FTUS41 KBUF 261700
TAFBUF
TAF
KBUF 261720Z 2618/2718 00000KT 1/2SM SN FG BKN003 OVC012
     FM262100 25004KT 2SM -SN OVC015
     FM270000 23007KT 5SM -SN OVC025
     FM270400 24007KT P6SM -SN BKN035
     FM271100 25004KT 4SM -SN BKN035
     FM271300 26005KT 3SM -SN OVC025
     FM271400 28005KT 2SM -SN BKN025
     FM271700 32006KT 2SM -SN OVC015=



000
FTUS41 KBUF 261700
TAFART
TAF
KART 261720Z 2618/2718 00000KT 1/2SM SN FG SCT004 OVC012
     FM270100 23004KT 2SM -SN OVC025
     FM270300 23005KT 3SM -SN OVC025
     FM271100 31004KT 4SM -SN OVC020
     FM271400 36008KT 4SM -SN BKN020=



000
FTUS41 KBUF 261700
TAFBUF
TAF
KBUF 261720Z 2618/2718 00000KT 1/2SM SN FG BKN003 OVC012
     FM262100 25004KT 2SM -SN OVC015
     FM270000 23007KT 5SM -SN OVC025
     FM270400 24007KT P6SM -SN BKN035
     FM271100 25004KT 4SM -SN BKN035
     FM271300 26005KT 3SM -SN OVC025
     FM271400 28005KT 2SM -SN BKN025
     FM271700 32006KT 2SM -SN OVC015=



000
FTUS41 KBUF 261700
TAFART
TAF
KART 261720Z 2618/2718 00000KT 1/2SM SN FG SCT004 OVC012
     FM270100 23004KT 2SM -SN OVC025
     FM270300 23005KT 3SM -SN OVC025
     FM271100 31004KT 4SM -SN OVC020
     FM271400 36008KT 4SM -SN BKN020=



000
FTUS41 KBUF 261700
TAFROC
TAF
KROC 261720Z 2618/2718 00000KT 1SM -SN BR BKN005 OVC013
     FM270100 25004KT 2SM -SN OVC025
     FM270200 25005KT 6SM -SN BKN025
     FM270700 26006KT P6SM BKN200
     FM271300 29005KT P6SM BKN040
     FM271400 32005KT 5SM -SN BKN020
     FM271600 35007KT 3SM -SN BKN020
     FM271700 02008KT 2SM -SN BKN020=



000
FTUS41 KBUF 261700
TAFJHW
TAF
KJHW 261720Z 2618/2718 00000KT 3SM -SN SCT007 OVC029
     FM261900 33004KT 2SM -SN OVC007
     FM270000 29005KT 3SM -SN OVC007
     FM270600 25005KT 5SM -SN BKN007
     FM270900 28004KT 2SM -SN BKN007
     FM271000 28004KT 3SM -SN BKN007
     FM271400 29006KT 2SM -SN BKN007
     FM271600 29007KT 2SM -SN BKN015
      AMD LTD TO CLD VIS AND WIND=



000
FTUS41 KBUF 261700
TAFIAG
TAF
KIAG 261720Z 2618/2718 28004KT 3/4SM -SN BR OVC003
     FM262100 24004KT 2SM -SN OVC025
     FM262200 24005KT 3SM -SN OVC025
     FM270000 23007KT P6SM OVC025
     FM270200 24007KT P6SM BKN035
     FM271100 27005KT 6SM -SN BKN035
     FM271400 31007KT 3SM -SN BKN035
     FM271600 33009KT 2SM -SN BKN025=



000
FTUS41 KBUF 261700
TAFJHW
TAF
KJHW 261720Z 2618/2718 00000KT 3SM -SN SCT007 OVC029
     FM261900 33004KT 2SM -SN OVC007
     FM270000 29005KT 3SM -SN OVC007
     FM270600 25005KT 5SM -SN BKN007
     FM270900 28004KT 2SM -SN BKN007
     FM271000 28004KT 3SM -SN BKN007
     FM271400 29006KT 2SM -SN BKN007
     FM271600 29007KT 2SM -SN BKN015
      AMD LTD TO CLD VIS AND WIND=



000
FTUS41 KBUF 261700
TAFROC
TAF
KROC 261720Z 2618/2718 00000KT 1SM -SN BR BKN005 OVC013
     FM270100 25004KT 2SM -SN OVC025
     FM270200 25005KT 6SM -SN BKN025
     FM270700 26006KT P6SM BKN200
     FM271300 29005KT P6SM BKN040
     FM271400 32005KT 5SM -SN BKN020
     FM271600 35007KT 3SM -SN BKN020
     FM271700 02008KT 2SM -SN BKN020=



000
FTUS41 KBUF 261700
TAFIAG
TAF
KIAG 261720Z 2618/2718 28004KT 3/4SM -SN BR OVC003
     FM262100 24004KT 2SM -SN OVC025
     FM262200 24005KT 3SM -SN OVC025
     FM270000 23007KT P6SM OVC025
     FM270200 24007KT P6SM BKN035
     FM271100 27005KT 6SM -SN BKN035
     FM271400 31007KT 3SM -SN BKN035
     FM271600 33009KT 2SM -SN BKN025=



000
FTUS41 KBUF 261600 AAC
TAFIAG
TAF AMD
KIAG 261657Z 2617/2712 00000KT 3/4SM -SN BR OVC003
      TEMPO 2617/2619 1SM -SN BR OVC004
     FM261900 27004KT 2SM -SN OVC007
     FM262300 25004KT 3SM BR VCSH OVC007
     FM270300 25006KT P6SM BKN015=



000
FTUS41 KBUF 261600 AAC
TAFIAG
TAF AMD
KIAG 261657Z 2617/2712 00000KT 3/4SM -SN BR OVC003
      TEMPO 2617/2619 1SM -SN BR OVC004
     FM261900 27004KT 2SM -SN OVC007
     FM262300 25004KT 3SM BR VCSH OVC007
     FM270300 25006KT P6SM BKN015=



000
FTUS41 KBUF 261600 AAC
TAFBUF
TAF AMD
KBUF 261656Z 2617/2712 00000KT 1/4SM +SN FG SCT003 OVC011
      TEMPO 2617/2619 3/4SM -SN BR OVC004
     FM261900 00000KT 2SM -SN OVC008
     FM262300 24006KT 3SM BR VCSH OVC012
     FM270300 24008KT P6SM OVC012=



000
FTUS41 KBUF 261600 AAC
TAFROC
TAF AMD
KROC 261655Z 2617/2712 00000KT 1SM -SNRA BR BKN005 OVC015
     FM262000 27004KT 3SM -SN OVC006
     FM270100 26005KT 3SM BR VCSH OVC007
     FM270300 24006KT P6SM OVC012=



000
FTUS41 KBUF 261500 AAC
TAFJHW
TAF AMD
KJHW 261517Z 2615/2712 33011KT 1SM -SN BKN020 BKN025 OVC050
     FM261600 35004KT 2SM -SN OVC003
     FM270000 29006KT 4SM BR VCSH OVC007
      AMD LTD TO CLD VIS AND WIND=



000
FTUS41 KBUF 261500 AAB
TAFBUF
TAF AMD
KBUF 261517Z 2615/2712 00000KT 2SM -SNRA BKN008 OVC025
      TEMPO 2615/2618 3/4SM -SN BR OVC004
     FM261900 00000KT 2SM -SN OVC003
     FM262300 24006KT 3SM BR VCSH OVC007
     FM270300 24008KT P6SM OVC012=



000
FTUS41 KBUF 261500 AAB
TAFROC
TAF AMD
KROC 261517Z 2615/2712 VRB03KT 6SM -RA FEW017 BKN035 OVC045
     FM261700 00000KT 2SM -SN OVC007
     FM270100 26005KT 3SM BR VCSH OVC007
     FM270300 24006KT P6SM OVC012=



000
FTUS41 KBUF 261500 AAB
TAFIAG
TAF AMD
KIAG 261517Z 2615/2712 00000KT 2SM -SN BR OVC008
      TEMPO 2615/2618 1/2SM -SN FG OVC004
     FM262100 27004KT 2SM -SN OVC007
     FM262300 25004KT 3SM BR VCSH OVC007
     FM270300 25006KT P6SM BKN015=



000
FTUS41 KBUF 261500 AAB
TAFART
TAF AMD
KART 261517Z 2615/2712 24003KT 4SM -RA SCT029 OVC035
     FM261600 22005KT 2SM -RASN OVC045
     FM261800 00000KT 2SM -SN OVC012
     FM270200 23004KT 2SM -SN OVC007
     FM270300 23005KT 3SM BR VCSH OVC007
     FM271100 34006KT P6SM OVC007=



000
FTUS41 KBUF 261400 AAA
TAFIAG
TAF AMD
KIAG 261438Z 2615/2712 24004KT 2SM -SN OVC008
      TEMPO 2615/2618 3/4SM -RASN BR OVC004
     FM262100 27004KT 2SM -SN OVC007
     FM262300 25004KT 3SM BR VCSH OVC007
     FM270300 25006KT P6SM BKN015=



000
FTUS41 KBUF 261400 AAA
TAFBUF
TAF AMD
KBUF 261438Z 2615/2712 00000KT 2SM -RA BR FEW008 OVC030
     FM261900 00000KT 2SM -SN OVC003
     FM262300 24006KT 3SM BR VCSH OVC007
     FM270300 24008KT P6SM OVC012=



000
FTUS41 KBUF 261400 AAA
TAFART
TAF AMD
KART 261438Z 2615/2712 22004KT 6SM HZ OVC035
     FM261600 22005KT 2SM -RASN OVC045
     FM261800 00000KT 2SM -SN OVC012
     FM270200 23004KT 2SM -SN OVC007
     FM270300 23005KT 3SM BR VCSH OVC007
     FM271100 34006KT P6SM OVC007=



000
FTUS41 KBUF 261400 AAA
TAFROC
TAF AMD
KROC 261438Z 2615/2712 29007KT P6SM -RA SCT022 OVC060
     FM261700 00000KT 2SM -SN OVC007
     FM270100 26005KT 3SM BR VCSH OVC007
     FM270300 24006KT P6SM OVC012=



000
FTUS41 KBUF 261400 AAB
TAFJHW
TAF AMD
KJHW 261438Z 2615/2712 31009KT 1SM -SN OVC004
     FM261600 35004KT 2SM -SN OVC003
     FM270000 29006KT 4SM BR VCSH OVC007
      AMD LTD TO CLD VIS AND WIND=



000
FTUS41 KBUF 261400 AAA
TAFIAG
TAF AMD
KIAG 261438Z 2615/2712 24004KT 2SM -SN OVC008
      TEMPO 2615/2618 3/4SM -RASN BR OVC004
     FM262100 27004KT 2SM -SN OVC007
     FM262300 25004KT 3SM BR VCSH OVC007
     FM270300 25006KT P6SM BKN015=



000
FTUS41 KBUF 261400 AAA
TAFROC
TAF AMD
KROC 261438Z 2615/2712 29007KT P6SM -RA SCT022 OVC060
     FM261700 00000KT 2SM -SN OVC007
     FM270100 26005KT 3SM BR VCSH OVC007
     FM270300 24006KT P6SM OVC012=



000
FTUS41 KBUF 261400 AAB
TAFJHW
TAF AMD
KJHW 261438Z 2615/2712 31009KT 1SM -SN OVC004
     FM261600 35004KT 2SM -SN OVC003
     FM270000 29006KT 4SM BR VCSH OVC007
      AMD LTD TO CLD VIS AND WIND=



000
FTUS41 KBUF 261400 AAA
TAFART
TAF AMD
KART 261438Z 2615/2712 22004KT 6SM HZ OVC035
     FM261600 22005KT 2SM -RASN OVC045
     FM261800 00000KT 2SM -SN OVC012
     FM270200 23004KT 2SM -SN OVC007
     FM270300 23005KT 3SM BR VCSH OVC007
     FM271100 34006KT P6SM OVC007=



000
FTUS41 KBUF 261400 AAA
TAFBUF
TAF AMD
KBUF 261438Z 2615/2712 00000KT 2SM -RA BR FEW008 OVC030
     FM261900 00000KT 2SM -SN OVC003
     FM262300 24006KT 3SM BR VCSH OVC007
     FM270300 24008KT P6SM OVC012=



000
FTUS41 KBUF 261200 AAA
TAFJHW
TAF AMD
KJHW 261244Z 2613/2712 00000KT 3/4SM BR VCFG OVC007
      TEMPO 2613/2614 1/4SM FG OVC001
     FM261400 00000KT 6SM -RA OVC007
     FM261500 35004KT 2SM -RASN OVC003
     FM261600 35004KT 2SM -SN OVC003
     FM270000 29006KT 4SM BR VCSH OVC007
      AMD LTD TO CLD VIS AND WIND=



000
FTUS41 KBUF 261200 AAA
TAFJHW
TAF AMD
KJHW 261244Z 2613/2712 00000KT 3/4SM BR VCFG OVC007
      TEMPO 2613/2614 1/4SM FG OVC001
     FM261400 00000KT 6SM -RA OVC007
     FM261500 35004KT 2SM -RASN OVC003
     FM261600 35004KT 2SM -SN OVC003
     FM270000 29006KT 4SM BR VCSH OVC007
      AMD LTD TO CLD VIS AND WIND=



000
FTUS41 KBUF 261100
TAFJHW
TAF
KJHW 261124Z 2612/2712 00000KT 3/4SM BR VCFG OVC007
     FM261330 00000KT 6SM -RA OVC007
     FM261500 35004KT 2SM -RASN OVC003
     FM261600 35004KT 2SM -SN OVC003
     FM270000 29006KT 4SM BR VCSH OVC007
      AMD LTD TO CLD VIS AND WIND=



000
FTUS41 KBUF 261100
TAFROC
TAF
KROC 261124Z 2612/2712 24005KT 6SM BR BKN015
     FM261300 24004KT 6SM -RA OVC012
     FM261500 00000KT 2SM -RASN OVC025
     FM261700 00000KT 2SM -SN OVC007
     FM270100 26005KT 3SM BR VCSH OVC007
     FM270300 24006KT P6SM OVC012=



000
FTUS41 KBUF 261100
TAFIAG
TAF
KIAG 261124Z 2612/2712 21006KT 5SM BR VCFG FEW003 OVC025
     FM261300 21005KT 2SM -RASN OVC020
     FM261500 21004KT 2SM -SN OVC015
     FM262100 27004KT 2SM -SN OVC007
     FM262300 25004KT 3SM BR VCSH OVC007
     FM270300 25006KT P6SM BKN015=



000
FTUS41 KBUF 261100
TAFART
TAF
KART 261124Z 2612/2712 22009KT 5SM BR BKN035
     FM261600 22005KT 2SM -RASN OVC045
     FM261800 00000KT 2SM -SN OVC012
     FM270200 23004KT 2SM -SN OVC007
     FM270300 23005KT 3SM BR VCSH OVC007
     FM271100 34006KT P6SM OVC007=



000
FTUS41 KBUF 261100
TAFBUF
TAF
KBUF 261124Z 2612/2712 21006KT 2SM BR VCFG FEW003 OVC012
     FM261300 22005KT 5SM -RASN OVC015
     FM261500 VRB03KT 2SM -SN OVC007
     FM261900 00000KT 2SM -SN OVC003
     FM262300 24006KT 3SM BR VCSH OVC007
     FM270300 24008KT P6SM OVC012=



000
FTUS41 KBUF 260800 AAA
TAFROC
TAF AMD
KROC 260823Z 2608/2706 23009KT 6SM BR OVC017
     FM261400 25004KT 6SM -RA OVC015
     FM261600 27005KT 6SM -RASN OVC012
     FM261800 33004KT 2SM -SN OVC007
     FM262200 29005KT 6SM -SHSN OVC012
     FM270100 27005KT 6SM BR VCSH OVC012=



000
FTUS41 KBUF 260800 AAA
TAFIAG
TAF AMD
KIAG 260823Z 2608/2706 24011KT 6SM BR OVC018
     FM261300 22005KT 6SM -RA OVC020
     FM261400 24005KT 6SM -RASN OVC012
     FM261600 27004KT 2SM -SN OVC007
     FM262100 25007KT 6SM BR VCSH OVC015
     FM270400 27007KT P6SM BKN040=



000
FTUS41 KBUF 260800 AAA
TAFART
TAF AMD
KART 260823Z 2608/2706 21012G20KT P6SM OVC020
     FM261000 22009KT P6SM BKN020
     FM261500 22007KT 6SM -RA OVC035
     FM261700 23005KT 6SM -RASN OVC012
     FM261900 24004KT 2SM -SN OVC007
     FM270300 26004KT 6SM BR VCSH OVC007=



000
FTUS41 KBUF 260800 AAA
TAFJHW
TAF AMD
KJHW 260823Z 2608/2706 23005KT 4SM BR OVC005
     FM261300 VRB03KT 5SM -RASN OVC007
     FM261600 36004KT 2SM -RASN OVC003
     FM261900 32006KT 2SM -SN OVC007
     FM270100 28006KT 6SM BR VCSH OVC012
      AMD LTD TO CLD VIS AND WIND=



000
FTUS41 KBUF 260800 AAA
TAFBUF
TAF AMD
KBUF 260823Z 2608/2706 24011KT 5SM BR OVC004
     FM261300 22005KT 6SM -RA OVC020
     FM261400 24005KT 6SM -RASN OVC012
     FM261600 27004KT 2SM -SN OVC007
     FM262300 24008KT 6SM -SHSN OVC015
     FM270300 26007KT 6SM BR BKN015=



000
FTUS41 KBUF 260500
TAFROC
TAF
KROC 260520Z 2606/2706 23009KT 6SM BR SCT020 BKN045
     FM261400 25004KT 6SM -RA OVC015
     FM261600 27005KT 6SM -RASN OVC012
     FM261800 33004KT 2SM -SN OVC007
     FM262200 29005KT 6SM -SHSN OVC012
     FM270100 27005KT 6SM BR VCSH OVC012=



000
FTUS41 KBUF 260500
TAFIAG
TAF
KIAG 260520Z 2606/2706 24011KT 6SM BR SCT100
     FM261300 22005KT 6SM -RA OVC020
     FM261400 24005KT 6SM -RASN OVC012
     FM261600 27004KT 2SM -SN OVC007
     FM262100 25007KT 6SM BR VCSH OVC015
     FM270400 27007KT P6SM BKN040=



000
FTUS41 KBUF 260500
TAFART
TAF
KART 260520Z 2606/2706 21012G20KT P6SM OVC020
     FM261000 22009KT P6SM BKN020
     FM261500 22007KT 6SM -RA OVC035
     FM261700 23005KT 6SM -RASN OVC012
     FM261900 24004KT 2SM -SN OVC007
     FM270300 26004KT 6SM BR VCSH OVC007=



000
FTUS41 KBUF 260500
TAFJHW
TAF
KJHW 260520Z 2606/2706 23005KT 4SM BR SCT100
     FM261300 VRB03KT 5SM -RASN OVC007
     FM261600 36004KT 2SM -RASN OVC003
     FM261900 32006KT 2SM -SN OVC007
     FM270100 28006KT 6SM BR VCSH OVC012
      AMD LTD TO CLD VIS AND WIND=



000
FTUS41 KBUF 260500
TAFBUF
TAF
KBUF 260520Z 2606/2706 24011KT 6SM BR OVC015
     FM261300 22005KT 6SM -RA OVC020
     FM261400 24005KT 6SM -RASN OVC012
     FM261600 27004KT 2SM -SN OVC007
     FM262300 24008KT 6SM -SHSN OVC015
     FM270300 26007KT 6SM BR BKN015=



000
FTUS41 KBUF 260300 AAB
TAFROC
TAF AMD
KROC 260348Z 2604/2624 22010KT P6SM SCT025
     FM261000 24006KT P6SM BKN100
     FM261500 VRB03KT 6SM -RA OVC040
     FM261700 28005KT 2SM -RASN OVC008
     FM262200 30005KT 3SM -SHRASN OVC015=



000
FTUS41 KBUF 260300 AAC
TAFBUF
TAF AMD
KBUF 260326Z 2603/2624 23015KT P6SM OVC015
     FM260600 24010KT 5SM BR BKN008
     FM261000 24006KT P6SM SCT008 BKN100
     FM261400 23005KT 5SM -RA BR OVC025
     FM261600 25005KT 2SM -RASN OVC008
     FM262000 26005KT 3SM -SHRASN OVC025=



000
FTUS41 KBUF 260300 AAC
TAFBUF
TAF AMD
KBUF 260326Z 2603/2624 23015KT P6SM OVC015
     FM260600 24010KT 5SM BR BKN008
     FM261000 24006KT P6SM SCT008 BKN100
     FM261400 23005KT 5SM -RA BR OVC025
     FM261600 25005KT 2SM -RASN OVC008
     FM262000 26005KT 3SM -SHRASN OVC025=



000
FTUS41 KBUF 260300 AAC
TAFJHW
TAF AMD
KJHW 260325Z 2603/2624 23006KT 2SM BR SCT008
     FM261000 24005KT 3SM BR BKN008
     FM261300 VRB03KT 6SM -RA OVC025
     FM261500 33005KT 2SM -RASN OVC006
     FM262200 31006KT 2SM -SHSN OVC008
      AMD LTD TO CLD VIS AND WIND=



000
FTUS41 KBUF 260300 AAC
TAFJHW
TAF AMD
KJHW 260325Z 2603/2624 23006KT 2SM BR SCT008
     FM261000 24005KT 3SM BR BKN008
     FM261300 VRB03KT 6SM -RA OVC025
     FM261500 33005KT 2SM -RASN OVC006
     FM262200 31006KT 2SM -SHSN OVC008
      AMD LTD TO CLD VIS AND WIND=



000
FTUS41 KBUF 260200 AAB
TAFIAG
TAF AMD
KIAG 260229Z 2602/2624 22016G24KT P6SM SCT008
     FM260500 23008KT P6SM SCT008 BKN100
     FM261400 23005KT 5SM -RA BR OVC025
     FM261600 24005KT 2SM -RASN OVC008
     FM262000 26008KT 3SM -SHRASN OVC025=



000
FTUS41 KBUF 260200 AAA
TAFART
TAF AMD
KART 260229Z 2602/2624 20016G24KT P6SM BKN025
     FM260700 23012KT 2SM BR BKN008
     FM261500 23006KT 6SM -RA OVC025
     FM261700 25005KT 2SM -RASN OVC008=



000
FTUS41 KBUF 260200 AAB
TAFJHW
TAF AMD
KJHW 260229Z 2602/2624 23006KT 3SM BR SCT008
     FM260600 24005KT 2SM BR BKN008
     FM261300 VRB03KT 6SM -RA OVC025
     FM261500 33005KT 2SM -RASN OVC006
     FM262200 31006KT 2SM -SHSN OVC008
      AMD LTD TO CLD VIS AND WIND=



000
FTUS41 KBUF 260200 AAB
TAFBUF
TAF AMD
KBUF 260229Z 2602/2624 23018G26KT P6SM SCT008
     FM260500 24012KT 5SM BR BKN008
     FM260800 24006KT P6SM SCT008 BKN100
     FM261400 23005KT 5SM -RA BR OVC025
     FM261600 25005KT 2SM -RASN OVC008
     FM262000 26005KT 3SM -SHRASN OVC025=



000
FTUS41 KBUF 260200 AAA
TAFROC
TAF AMD
KROC 260229Z 2602/2624 22012KT P6SM BKN025
     FM260500 22008KT P6SM SCT015
     FM261000 24006KT P6SM BKN100
     FM261500 VRB03KT 6SM -RA OVC040
     FM261700 28005KT 2SM -RASN OVC008
     FM262200 30005KT 3SM -SHRASN OVC015=



000
FTUS41 KBUF 260100 AAA
TAFIAG
TAF AMD
KIAG 260117Z 2601/2624 22016G24KT P6SM SCT008
     FM260400 23014KT P6SM BKN008
     FM260700 24008KT P6SM SCT008 BKN100
     FM261400 23005KT 5SM -RA BR OVC025
     FM261600 24005KT 2SM -RASN OVC008
     FM262000 26008KT 3SM -SHRASN OVC025=



000
FTUS41 KBUF 260100 AAA
TAFBUF
TAF AMD
KBUF 260116Z 2601/2624 23018G26KT P6SM SCT008
     FM260400 24012KT 5SM BR BKN008
     FM260800 24006KT P6SM SCT008 BKN100
     FM261400 23005KT 5SM -RA BR OVC025
     FM261600 25005KT 2SM -RASN OVC008
     FM262000 26005KT 3SM -SHRASN OVC025=



000
FTUS41 KBUF 260100 AAA
TAFJHW
TAF AMD
KJHW 260102Z 2601/2624 23006KT 2SM BR SCT008
     FM260400 24005KT 2SM BR BKN005
     FM261300 VRB03KT 6SM -RA OVC025
     FM261500 33005KT 2SM -RASN OVC006
     FM262200 31006KT 2SM -SHSN OVC008
      AMD LTD TO CLD VIS AND WIND=



000
FTUS41 KBUF 252300
TAFBUF
TAF
KBUF 252339Z 2600/2624 23018G26KT P6SM BKN008
     FM260300 24012KT 5SM BR BKN006
     FM260800 24006KT P6SM SCT008 BKN100
     FM261400 23005KT 5SM -RA BR OVC025
     FM261600 25005KT 2SM -RASN OVC008
     FM262000 26005KT 3SM -SHRASN OVC025=



000
FTUS41 KBUF 252300
TAFIAG
TAF
KIAG 252339Z 2600/2624 22016G24KT P6SM SCT008 BKN025
     FM260300 23014KT P6SM BKN008
     FM260600 24008KT P6SM SCT008 BKN100
     FM261400 23005KT 5SM -RA BR OVC025
     FM261600 24005KT 2SM -RASN OVC008
     FM262000 26008KT 3SM -SHRASN OVC025=



000
FTUS41 KBUF 252300
TAFBUF
TAF
KBUF 252339Z 2600/2624 23018G26KT P6SM BKN008
     FM260300 24012KT 5SM BR BKN006
     FM260800 24006KT P6SM SCT008 BKN100
     FM261400 23005KT 5SM -RA BR OVC025
     FM261600 25005KT 2SM -RASN OVC008
     FM262000 26005KT 3SM -SHRASN OVC025=



000
FTUS41 KBUF 252300
TAFROC
TAF
KROC 252339Z 2600/2624 21014KT P6SM BKN025
     FM260100 22012KT P6SM SCT025
     FM260500 22008KT P6SM SCT010
     FM261000 24006KT P6SM BKN100
     FM261500 VRB03KT 6SM -RA OVC040
     FM261700 28005KT 2SM -RASN OVC008
     FM262200 30005KT 3SM -SHRASN OVC015=



000
FTUS41 KBUF 252300
TAFART
TAF
KART 252339Z 2600/2624 18018G26KT P6SM VCSH OVC025
     FM260200 20016G24KT P6SM BKN030
     FM260500 23012KT 2SM BR BKN008
     FM261500 23006KT 6SM -RA OVC025
     FM261700 25005KT 2SM -RASN OVC008=



000
FTUS41 KBUF 252300
TAFJHW
TAF
KJHW 252339Z 2600/2624 23006KT 3SM BR SCT008 BKN015
     FM260400 24005KT 2SM BR BKN008
     FM261300 VRB03KT 6SM -RA OVC025
     FM261500 33005KT 2SM -RASN OVC006
     FM262200 31006KT 2SM -SHSN OVC008
      AMD LTD TO CLD VIS AND WIND=



000
FTUS41 KBUF 252300
TAFART
TAF
KART 252339Z 2600/2624 18018G26KT P6SM VCSH OVC025
     FM260200 20016G24KT P6SM BKN030
     FM260500 23012KT 2SM BR BKN008
     FM261500 23006KT 6SM -RA OVC025
     FM261700 25005KT 2SM -RASN OVC008=



000
FTUS41 KBUF 252300
TAFJHW
TAF
KJHW 252339Z 2600/2624 23006KT 3SM BR SCT008 BKN015
     FM260400 24005KT 2SM BR BKN008
     FM261300 VRB03KT 6SM -RA OVC025
     FM261500 33005KT 2SM -RASN OVC006
     FM262200 31006KT 2SM -SHSN OVC008
      AMD LTD TO CLD VIS AND WIND=



000
FTUS41 KBUF 252300
TAFIAG
TAF
KIAG 252339Z 2600/2624 22016G24KT P6SM SCT008 BKN025
     FM260300 23014KT P6SM BKN008
     FM260600 24008KT P6SM SCT008 BKN100
     FM261400 23005KT 5SM -RA BR OVC025
     FM261600 24005KT 2SM -RASN OVC008
     FM262000 26008KT 3SM -SHRASN OVC025=



000
FTUS41 KBUF 252300
TAFROC
TAF
KROC 252339Z 2600/2624 21014KT P6SM BKN025
     FM260100 22012KT P6SM SCT025
     FM260500 22008KT P6SM SCT010
     FM261000 24006KT P6SM BKN100
     FM261500 VRB03KT 6SM -RA OVC040
     FM261700 28005KT 2SM -RASN OVC008
     FM262200 30005KT 3SM -SHRASN OVC015=



000
FTUS41 KBUF 252200 AAC
TAFBUF
TAF AMD
KBUF 252201Z 2522/2618 22018G24KT 2SM -SHRA BR OVC012
     FM252300 22018G24KT 3SM -SHRA BR OVC015
     FM260000 23016G24KT P6SM SCT008
     FM260300 24012KT P6SM BKN008
     FM260900 24008KT P6SM BKN100
     FM261400 23005KT 5SM -RA BR OVC040=



000
FTUS41 KBUF 252100 AAB
TAFART
TAF AMD
KART 252142Z 2522/2618 17018G26KT 6SM -RA OVC040
     FM252300 18016G24KT P6SM VCSH OVC035
     FM260300 20016G24KT P6SM BKN025
     FM260600 23012KT 2SM BR BKN008
     FM261500 23006KT 6SM -RA OVC025=



000
FTUS41 KBUF 252100 AAB
TAFBUF
TAF AMD
KBUF 252142Z 2522/2618 20018G24KT 3SM -SHRA BR OVC015
     FM260000 23016G24KT P6SM SCT008
     FM260300 24012KT P6SM BKN008
     FM260900 24008KT P6SM BKN100
     FM261400 23005KT 5SM -RA BR OVC040=



000
FTUS41 KBUF 252100 AAB
TAFIAG
TAF AMD
KIAG 252142Z 2522/2618 21016G24KT 2SM -SHRA BR OVC012
     FM260000 22016G24KT P6SM SCT008
     FM260300 23014KT P6SM BKN008
     FM260800 23008KT P6SM BKN100
     FM261400 23005KT 5SM -RA BR OVC040=



000
FTUS41 KBUF 252100 AAB
TAFROC
TAF AMD
KROC 252142Z 2522/2618 20014G22KT P6SM -SHRA OVC025
     FM260000 21012G18KT P6SM SCT025
     FM260400 22008KT P6SM SCT015
     FM261000 24006KT P6SM BKN100
     FM261500 VRB03KT 6SM -RA OVC040=



000
FTUS41 KBUF 252100 AAB
TAFJHW
TAF AMD
KJHW 252142Z 2522/2618 20010KT 5SM -SHRA BKN008
     FM252300 23006KT P6SM BKN015
     FM260200 23006KT P6SM SCT008
     FM260500 24004KT 2SM BR BKN008
     FM261300 VRB03KT 6SM -RA OVC025
      AMD LTD TO CLD VIS AND WIND=



000
FTUS41 KBUF 251900 AAA
TAFART
TAF AMD
KART 251953Z 2520/2618 17009KT P6SM BKN060
     FM252300 18016G27KT P6SM VCSH OVC030
     FM260200 20016G24KT P6SM BKN020
     FM260800 22012KT P6SM BKN060
     FM260900 22011G17KT P6SM BKN110
     FM261300 24007KT P6SM VCSH BKN090
     FM261500 26004KT 6SM -RA OVC070
     FM261600 VRB03KT 6SM -RA OVC070=



000
FTUS41 KBUF 251900 AAA
TAFJHW
TAF AMD
KJHW 251953Z 2520/2618 18009KT 5SM -RA SCT008 BKN050 OVC110
     FM252200 20011G17KT P6SM BKN012
     FM260000 23007KT P6SM BKN012
     FM260100 23007KT P6SM BKN150
     FM260300 22009KT P6SM BKN120
     FM260800 24005KT P6SM BKN080
     FM261100 VRB03KT P6SM VCSH BKN070
     FM261300 00000KT 6SM -RA OVC070
     FM261600 00000KT 6SM -RA OVC040
     FM261700 VRB03KT 6SM -RA OVC007
      AMD LTD TO CLD VIS AND WIND=



000
FTUS41 KBUF 251900 AAA
TAFIAG
TAF AMD
KIAG 251953Z 2520/2618 19016KT 3SM -RA BR VCSH BKN012 OVC018
     FM252200 21018G27KT P6SM BKN250
     FM260300 22017KT P6SM BKN140
     FM260500 23014G21KT P6SM BKN120
     FM260900 23008KT P6SM BKN100
     FM261100 21007KT P6SM VCSH BKN080
     FM261200 21006KT P6SM VCSH OVC070
     FM261400 20004KT 6SM -RA OVC060
     FM261500 VRB03KT 6SM -RA OVC060
     FM261700 00000KT 6SM -RA OVC040=



000
FTUS41 KBUF 251900 AAA
TAFROC
TAF AMD
KROC 251953Z 2520/2618 17014KT P6SM -RA BKN060 OVC070
     FM252100 19015G31KT P6SM VCSH OVC035
     FM252300 21013G27KT P6SM BKN025
     FM260100 21011G19KT P6SM BKN200
     FM260300 21010KT P6SM SCT200
     FM260800 24007KT P6SM BKN110
     FM261300 25005KT P6SM VCSH BKN080
     FM261400 28005KT 6SM -RA OVC070
     FM261600 VRB03KT 6SM -RA OVC050
     FM261700 00000KT 6SM -RA OVC040=



000
FTUS41 KBUF 251900 AAA
TAFBUF
TAF AMD
KBUF 251953Z 2520/2618 20018G24KT 2SM -RA BR VCSH FEW009 BKN018
      OVC028
     FM252200 21017G24KT P6SM BKN250
     FM260400 23013G19KT P6SM BKN140
     FM260600 24012G19KT P6SM BKN110
     FM260900 24008KT P6SM BKN090
     FM261100 22006KT P6SM VCSH OVC080
     FM261200 21005KT P6SM VCSH OVC070
     FM261400 VRB03KT 6SM -RA OVC060
     FM261600 00000KT 6SM -RA OVC045=



000
FTUS41 KBUF 251700
TAFBUF
TAF
KBUF 251728Z 2518/2618 17015KT 5SM -RA FEW035 BKN045 OVC070
     FM252000 19016G23KT P6SM VCSH OVC035
     FM252200 21017G24KT P6SM BKN250
     FM260400 23013G19KT P6SM BKN140
     FM260600 24012G19KT P6SM BKN110
     FM260900 24008KT P6SM BKN090
     FM261100 22006KT P6SM VCSH OVC080
     FM261200 21005KT P6SM VCSH OVC070
     FM261400 VRB03KT 6SM -RA OVC060
     FM261600 00000KT 6SM -RA OVC045=



000
FTUS41 KBUF 251700
TAFJHW
TAF
KJHW 251728Z 2518/2618 17007KT 6SM -RA FEW006 OVC110
     FM252200 20011G17KT P6SM BKN012
     FM260000 23007KT P6SM BKN012
     FM260100 23007KT P6SM BKN150
     FM260300 22009KT P6SM BKN120
     FM260800 24005KT P6SM BKN080
     FM261100 VRB03KT P6SM VCSH BKN070
     FM261300 00000KT 6SM -RA OVC070
     FM261600 00000KT 6SM -RA OVC040
     FM261700 VRB03KT 6SM -RA OVC007
      AMD LTD TO CLD VIS AND WIND=



000
FTUS41 KBUF 251700
TAFROC
TAF
KROC 251728Z 2518/2618 18010KT P6SM -RA BKN070 OVC090
     FM251900 17015G29KT 6SM -RA OVC040
     FM252100 19015G31KT P6SM VCSH OVC035
     FM252300 21013G27KT P6SM BKN025
     FM260100 21011G19KT P6SM BKN200
     FM260300 21010KT P6SM SCT200
     FM260800 24007KT P6SM BKN110
     FM261300 25005KT P6SM VCSH BKN080
     FM261400 28005KT 6SM -RA OVC070
     FM261600 VRB03KT 6SM -RA OVC050
     FM261700 00000KT 6SM -RA OVC040=



000
FTUS41 KBUF 251700
TAFART
TAF
KART 251728Z 2518/2618 15006KT P6SM BKN250
     FM252000 17014G21KT 6SM -RA OVC035
     FM252300 18016G27KT P6SM VCSH OVC030
     FM260200 20016G24KT P6SM BKN020
     FM260800 22012KT P6SM BKN060
     FM260900 22011G17KT P6SM BKN110
     FM261300 24007KT P6SM VCSH BKN090
     FM261500 26004KT 6SM -RA OVC070
     FM261600 VRB03KT 6SM -RA OVC070=



000
FTUS41 KBUF 251700
TAFIAG
TAF
KIAG 251728Z 2518/2618 17008KT 4SM -RA BR BKN026 OVC045
     FM252000 20017G25KT P6SM VCSH OVC030
     FM252200 21018G27KT P6SM BKN250
     FM260300 22017KT P6SM BKN140
     FM260500 23014G21KT P6SM BKN120
     FM260900 23008KT P6SM BKN100
     FM261100 21007KT P6SM VCSH BKN080
     FM261200 21006KT P6SM VCSH OVC070
     FM261400 20004KT 6SM -RA OVC060
     FM261500 VRB03KT 6SM -RA OVC060
     FM261700 00000KT 6SM -RA OVC040=



000
FTUS41 KBUF 251500 AAA
TAFIAG
TAF AMD
KIAG 251521Z 2515/2612 15010KT P6SM -RA BKN090 BKN120 OVC140
     FM251800 17015G24KT 6SM -RA OVC030
     FM252200 22018G27KT P6SM BKN025
     FM260300 23016KT P6SM BKN080=



000
FTUS41 KBUF 251500 AAA
TAFJHW
TAF AMD
KJHW 251521Z 2515/2612 17016G20KT P6SM FEW060 OVC070
     FM251800 18015G26KT 6SM -RA OVC020
     FM252000 19014G26KT P6SM OVC010
     FM260300 21009KT P6SM BKN020
      AMD LTD TO CLD VIS AND WIND=



000
FTUS41 KBUF 251500 AAA
TAFART
TAF AMD
KART 251521Z 2515/2612 13006KT P6SM BKN250
     FM251800 15011G18KT 6SM -RA OVC035
     FM252000 16013KT 6SM -RA OVC070
     FM252300 18017G26KT 6SM -RA OVC012
     FM260200 20016KT P6SM BKN020=



000
FTUS41 KBUF 251500 AAA
TAFROC
TAF AMD
KROC 251521Z 2515/2612 16010G20KT P6SM BKN180 OVC250
     FM251600 16013G24KT 6SM -RA OVC035
     FM251900 18016G29KT 6SM -RA OVC030
     FM252200 20015G28KT P6SM BKN025
     FM260300 21012KT P6SM BKN050=



000
FTUS41 KBUF 251500 AAA
TAFBUF
TAF AMD
KBUF 251521Z 2515/2612 14008KT P6SM FEW070 BKN140 OVC250
     FM251900 19017G24KT 6SM -RA OVC030
     FM252100 21017G24KT P6SM BKN025
     FM260200 22014KT P6SM BKN050=



    US Dept of Commerce
    National Oceanic and Atmospheric Administration
    National Weather Service
    1325 East West Highway
    Silver Spring, MD 20910
    Page Author: NWS Internet Services Team
Disclaimer
Information Quality
Credits
Glossary
Privacy Policy
Freedom of Information Act (FOIA)
About Us
Career Opportunities